sensor_id;sensor_type;location;lat;lon;timestamp;pressure;altitude;pressure_sealevel;temperature;humidity
31911;BME280;18457;52.432;16.914;2022-08-01T00:00:06;100196.01;;;19.58;67.55
31911;BME280;18457;52.432;16.914;2022-08-01T00:02:59;100196.38;;;19.58;67.47
31911;BME280;18457;52.432;16.914;2022-08-01T00:05:31;100201.54;;;19.52;67.93
31911;BME280;18457;52.432;16.914;2022-08-01T00:08:03;100198.38;;;19.53;67.95
31911;BME280;18457;52.432;16.914;2022-08-01T00:10:35;100198.13;;;19.49;68.27
31911;BME280;18457;52.432;16.914;2022-08-01T00:13:07;100191.94;;;19.42;68.17
31911;BME280;18457;52.432;16.914;2022-08-01T00:15:40;100191.15;;;19.46;68.59
31911;BME280;18457;52.432;16.914;2022-08-01T00:18:23;100184.83;;;19.44;68.61
31911;BME280;18457;52.432;16.914;2022-08-01T00:20:55;100178.18;;;19.37;68.74
31911;BME280;18457;52.432;16.914;2022-08-01T00:23:27;100180.58;;;19.37;69.08
31911;BME280;18457;52.432;16.914;2022-08-01T00:25:59;100181.76;;;19.38;69.04
31911;BME280;18457;52.432;16.914;2022-08-01T00:28:31;100178.60;;;19.39;68.82
31911;BME280;18457;52.432;16.914;2022-08-01T00:31:03;100177.89;;;19.38;68.82
31911;BME280;18457;52.432;16.914;2022-08-01T00:33:35;100174.00;;;19.33;68.95
31911;BME280;18457;52.432;16.914;2022-08-01T00:36:09;100176.96;;;19.33;69.49
31911;BME280;18457;52.432;16.914;2022-08-01T00:38:42;100174.95;;;19.33;69.08
31911;BME280;18457;52.432;16.914;2022-08-01T00:41:14;100171.80;;;19.30;69.24
31911;BME280;18457;52.432;16.914;2022-08-01T00:43:45;100169.84;;;19.29;69.60
31911;BME280;18457;52.432;16.914;2022-08-01T00:46:17;100170.24;;;19.26;69.62
31911;BME280;18457;52.432;16.914;2022-08-01T00:48:49;100166.36;;;19.23;69.83
31911;BME280;18457;52.432;16.914;2022-08-01T00:51:21;100167.73;;;19.19;69.85
31911;BME280;18457;52.432;16.914;2022-08-01T00:53:52;100168.11;;;19.19;70.13
31911;BME280;18457;52.432;16.914;2022-08-01T00:56:25;100173.40;;;19.16;70.11
31911;BME280;18457;52.432;16.914;2022-08-01T00:58:58;100170.81;;;19.20;69.93
31911;BME280;18457;52.432;16.914;2022-08-01T01:01:29;100172.02;;;19.21;69.65
31911;BME280;18457;52.432;16.914;2022-08-01T01:04:09;100169.40;;;19.16;69.78
31911;BME280;18457;52.432;16.914;2022-08-01T01:06:47;100166.98;;;19.22;69.68
31911;BME280;18457;52.432;16.914;2022-08-01T01:09:27;100169.23;;;19.25;69.69
31911;BME280;18457;52.432;16.914;2022-08-01T01:12:12;100164.50;;;19.24;69.43
31911;BME280;18457;52.432;16.914;2022-08-01T01:14:45;100162.94;;;19.20;69.69
31911;BME280;18457;52.432;16.914;2022-08-01T01:17:24;100166.30;;;19.18;69.67
31911;BME280;18457;52.432;16.914;2022-08-01T01:20:20;100165.02;;;19.13;69.92
31911;BME280;18457;52.432;16.914;2022-08-01T01:23:12;100161.40;;;19.06;70.05
31911;BME280;18457;52.432;16.914;2022-08-01T01:25:59;100160.61;;;19.10;69.73
31911;BME280;18457;52.432;16.914;2022-08-01T01:31:20;100159.82;;;19.11;70.11
31911;BME280;18457;52.432;16.914;2022-08-01T01:33:54;100157.58;;;19.12;70.06
31911;BME280;18457;52.432;16.914;2022-08-01T01:36:27;100157.56;;;19.12;70.30
31911;BME280;18457;52.432;16.914;2022-08-01T01:39:02;100155.35;;;19.12;70.12
31911;BME280;18457;52.432;16.914;2022-08-01T01:41:34;100151.69;;;19.06;70.69
31911;BME280;18457;52.432;16.914;2022-08-01T01:44:08;100151.98;;;19.05;71.16
31911;BME280;18457;52.432;16.914;2022-08-01T01:46:42;100152.32;;;19.08;70.76
31911;BME280;18457;52.432;16.914;2022-08-01T01:49:16;100149.43;;;19.05;70.77
31911;BME280;18457;52.432;16.914;2022-08-01T01:51:51;100146.17;;;19.01;71.30
31911;BME280;18457;52.432;16.914;2022-08-01T01:54:35;100147.83;;;18.98;71.58
31911;BME280;18457;52.432;16.914;2022-08-01T01:57:09;100140.44;;;18.99;71.98
31911;BME280;18457;52.432;16.914;2022-08-01T01:59:44;100145.96;;;18.93;71.97
31911;BME280;18457;52.432;16.914;2022-08-01T02:02:17;100142.02;;;18.88;72.35
31911;BME280;18457;52.432;16.914;2022-08-01T02:04:51;100144.95;;;18.85;72.69
31911;BME280;18457;52.432;16.914;2022-08-01T02:07:25;100145.73;;;18.88;72.64
31911;BME280;18457;52.432;16.914;2022-08-01T02:09:58;100142.38;;;18.83;72.81
31911;BME280;18457;52.432;16.914;2022-08-01T02:12:35;100141.27;;;18.80;73.18
31911;BME280;18457;52.432;16.914;2022-08-01T02:15:10;100141.11;;;18.80;73.06
31911;BME280;18457;52.432;16.914;2022-08-01T02:17:47;100139.50;;;18.79;72.84
31911;BME280;18457;52.432;16.914;2022-08-01T02:20:20;100133.17;;;18.75;73.16
31911;BME280;18457;52.432;16.914;2022-08-01T02:22:55;100134.40;;;18.79;73.34
31911;BME280;18457;52.432;16.914;2022-08-01T02:25:33;100135.18;;;18.81;72.93
31911;BME280;18457;52.432;16.914;2022-08-01T02:28:10;100132.20;;;18.76;73.31
31911;BME280;18457;52.432;16.914;2022-08-01T02:30:47;100130.43;;;18.78;73.39
31911;BME280;18457;52.432;16.914;2022-08-01T02:33:23;100130.83;;;18.80;73.29
31911;BME280;18457;52.432;16.914;2022-08-01T02:35:59;100129.10;;;18.76;73.36
31911;BME280;18457;52.432;16.914;2022-08-01T02:38:53;100129.33;;;18.78;73.49
31911;BME280;18457;52.432;16.914;2022-08-01T02:41:28;100125.58;;;18.85;73.34
31911;BME280;18457;52.432;16.914;2022-08-01T02:44:03;100124.87;;;18.76;73.46
31911;BME280;18457;52.432;16.914;2022-08-01T02:46:43;100122.69;;;18.81;72.92
31911;BME280;18457;52.432;16.914;2022-08-01T02:49:17;100120.86;;;18.82;73.56
31911;BME280;18457;52.432;16.914;2022-08-01T02:51:52;100123.27;;;18.76;73.60
31911;BME280;18457;52.432;16.914;2022-08-01T02:54:27;100120.71;;;18.72;73.23
31911;BME280;18457;52.432;16.914;2022-08-01T02:57:02;100117.41;;;18.75;73.41
31911;BME280;18457;52.432;16.914;2022-08-01T02:59:37;100118.41;;;18.77;73.47
31911;BME280;18457;52.432;16.914;2022-08-01T03:02:13;100114.23;;;18.82;73.58
31911;BME280;18457;52.432;16.914;2022-08-01T03:04:45;100115.17;;;18.82;73.44
31911;BME280;18457;52.432;16.914;2022-08-01T03:07:25;100112.70;;;18.83;73.38
31911;BME280;18457;52.432;16.914;2022-08-01T03:10:10;100110.88;;;18.83;73.25
31911;BME280;18457;52.432;16.914;2022-08-01T03:12:42;100109.98;;;18.86;73.07
31911;BME280;18457;52.432;16.914;2022-08-01T03:15:18;100113.42;;;18.81;73.29
31911;BME280;18457;52.432;16.914;2022-08-01T03:17:51;100112.55;;;18.86;73.34
31911;BME280;18457;52.432;16.914;2022-08-01T03:20:25;100107.38;;;18.78;73.22
31911;BME280;18457;52.432;16.914;2022-08-01T03:22:59;100109.33;;;18.82;73.46
31911;BME280;18457;52.432;16.914;2022-08-01T03:25:32;100110.94;;;18.82;73.39
31911;BME280;18457;52.432;16.914;2022-08-01T03:28:08;100103.23;;;18.82;73.47
31911;BME280;18457;52.432;16.914;2022-08-01T03:30:41;100102.66;;;18.83;73.05
31911;BME280;18457;52.432;16.914;2022-08-01T03:33:14;100102.13;;;18.85;73.50
31911;BME280;18457;52.432;16.914;2022-08-01T03:35:49;100102.47;;;18.89;73.48
31911;BME280;18457;52.432;16.914;2022-08-01T03:38:25;100102.10;;;18.89;73.36
31911;BME280;18457;52.432;16.914;2022-08-01T03:41:02;100100.48;;;18.88;73.49
31911;BME280;18457;52.432;16.914;2022-08-01T03:43:37;100096.88;;;18.90;73.60
31911;BME280;18457;52.432;16.914;2022-08-01T03:46:17;100095.41;;;18.93;73.54
31911;BME280;18457;52.432;16.914;2022-08-01T03:48:52;100092.80;;;18.97;73.25
31911;BME280;18457;52.432;16.914;2022-08-01T03:51:26;100093.20;;;18.99;73.16
31911;BME280;18457;52.432;16.914;2022-08-01T03:54:01;100096.31;;;19.05;73.01
31911;BME280;18457;52.432;16.914;2022-08-01T03:56:36;100096.56;;;19.09;72.36
31911;BME280;18457;52.432;16.914;2022-08-01T03:59:10;100093.55;;;19.08;72.71
31911;BME280;18457;52.432;16.914;2022-08-01T04:01:42;100091.88;;;19.05;72.77
31911;BME280;18457;52.432;16.914;2022-08-01T04:04:15;100093.40;;;19.10;72.80
31911;BME280;18457;52.432;16.914;2022-08-01T04:06:47;100092.77;;;19.17;72.64
31911;BME280;18457;52.432;16.914;2022-08-01T04:09:21;100093.67;;;19.20;72.31
31911;BME280;18457;52.432;16.914;2022-08-01T04:11:53;100092.89;;;19.15;72.23
31911;BME280;18457;52.432;16.914;2022-08-01T04:14:25;100089.33;;;19.08;72.07
31911;BME280;18457;52.432;16.914;2022-08-01T04:16:56;100088.80;;;19.13;72.20
31911;BME280;18457;52.432;16.914;2022-08-01T04:19:28;100092.67;;;19.22;72.13
31911;BME280;18457;52.432;16.914;2022-08-01T04:22:00;100091.36;;;19.28;71.69
31911;BME280;18457;52.432;16.914;2022-08-01T04:24:35;100087.59;;;19.18;72.04
31911;BME280;18457;52.432;16.914;2022-08-01T04:27:12;100093.29;;;19.23;72.08
31911;BME280;18457;52.432;16.914;2022-08-01T04:29:46;100093.02;;;19.31;71.65
31911;BME280;18457;52.432;16.914;2022-08-01T04:32:21;100092.61;;;19.37;71.64
31911;BME280;18457;52.432;16.914;2022-08-01T04:34:55;100094.01;;;19.41;71.20
31911;BME280;18457;52.432;16.914;2022-08-01T04:37:31;100090.31;;;19.41;71.31
31911;BME280;18457;52.432;16.914;2022-08-01T04:40:01;100091.85;;;19.46;71.36
31911;BME280;18457;52.432;16.914;2022-08-01T04:42:33;100093.96;;;19.50;70.50
31911;BME280;18457;52.432;16.914;2022-08-01T04:45:08;100091.45;;;19.52;70.61
31911;BME280;18457;52.432;16.914;2022-08-01T04:47:41;100086.70;;;19.57;70.44
31911;BME280;18457;52.432;16.914;2022-08-01T04:50:14;100085.39;;;19.57;70.42
31911;BME280;18457;52.432;16.914;2022-08-01T04:52:46;100091.11;;;19.54;70.60
31911;BME280;18457;52.432;16.914;2022-08-01T04:55:18;100088.55;;;19.51;70.81
31911;BME280;18457;52.432;16.914;2022-08-01T04:57:51;100088.59;;;19.50;70.70
31911;BME280;18457;52.432;16.914;2022-08-01T05:00:23;100090.66;;;19.52;70.93
31911;BME280;18457;52.432;16.914;2022-08-01T05:02:55;100085.55;;;19.49;71.12
31911;BME280;18457;52.432;16.914;2022-08-01T05:05:27;100084.79;;;19.53;70.87
31911;BME280;18457;52.432;16.914;2022-08-01T05:08:00;100088.15;;;19.54;71.12
31911;BME280;18457;52.432;16.914;2022-08-01T05:10:32;100091.46;;;19.57;70.94
31911;BME280;18457;52.432;16.914;2022-08-01T05:13:04;100096.13;;;19.58;70.63
31911;BME280;18457;52.432;16.914;2022-08-01T05:15:35;100095.92;;;19.59;70.59
31911;BME280;18457;52.432;16.914;2022-08-01T05:18:08;100099.98;;;19.61;71.29
31911;BME280;18457;52.432;16.914;2022-08-01T05:20:40;100090.58;;;19.62;71.48
31911;BME280;18457;52.432;16.914;2022-08-01T05:23:11;100091.44;;;19.63;71.13
31911;BME280;18457;52.432;16.914;2022-08-01T05:26:03;100092.52;;;19.68;70.91
31911;BME280;18457;52.432;16.914;2022-08-01T05:28:35;100090.67;;;19.74;70.65
31911;BME280;18457;52.432;16.914;2022-08-01T05:31:07;100091.56;;;19.72;71.08
31911;BME280;18457;52.432;16.914;2022-08-01T05:33:39;100090.61;;;19.75;70.97
31911;BME280;18457;52.432;16.914;2022-08-01T05:36:11;100093.36;;;19.75;71.00
31911;BME280;18457;52.432;16.914;2022-08-01T05:38:42;100092.38;;;19.73;70.92
31911;BME280;18457;52.432;16.914;2022-08-01T05:41:14;100090.41;;;19.70;71.31
31911;BME280;18457;52.432;16.914;2022-08-01T05:43:46;100087.79;;;19.68;71.09
31911;BME280;18457;52.432;16.914;2022-08-01T05:46:18;100088.25;;;19.67;71.20
31911;BME280;18457;52.432;16.914;2022-08-01T05:48:53;100092.91;;;19.68;71.59
31911;BME280;18457;52.432;16.914;2022-08-01T05:51:24;100089.56;;;19.66;71.49
31911;BME280;18457;52.432;16.914;2022-08-01T05:53:57;100092.84;;;19.61;71.77
31911;BME280;18457;52.432;16.914;2022-08-01T05:56:29;100093.55;;;19.58;72.03
31911;BME280;18457;52.432;16.914;2022-08-01T05:59:02;100098.42;;;19.62;71.82
31911;BME280;18457;52.432;16.914;2022-08-01T06:01:36;100098.10;;;19.64;72.04
31911;BME280;18457;52.432;16.914;2022-08-01T06:04:07;100097.73;;;19.67;72.12
31911;BME280;18457;52.432;16.914;2022-08-01T06:06:39;100100.86;;;19.72;71.25
31911;BME280;18457;52.432;16.914;2022-08-01T06:09:12;100099.67;;;19.77;71.38
31911;BME280;18457;52.432;16.914;2022-08-01T06:11:43;100093.40;;;19.80;71.66
31911;BME280;18457;52.432;16.914;2022-08-01T06:14:16;100097.54;;;19.81;71.83
31911;BME280;18457;52.432;16.914;2022-08-01T06:16:48;100101.23;;;19.86;71.99
31911;BME280;18457;52.432;16.914;2022-08-01T06:19:20;100103.40;;;19.89;71.52
31911;BME280;18457;52.432;16.914;2022-08-01T06:21:51;100102.72;;;19.91;71.39
31911;BME280;18457;52.432;16.914;2022-08-01T06:24:23;100098.02;;;19.95;71.36
31911;BME280;18457;52.432;16.914;2022-08-01T06:26:55;100097.66;;;19.95;71.10
31911;BME280;18457;52.432;16.914;2022-08-01T06:29:27;100101.96;;;20.00;71.07
31911;BME280;18457;52.432;16.914;2022-08-01T06:32:01;100105.87;;;20.02;71.22
31911;BME280;18457;52.432;16.914;2022-08-01T06:34:32;100107.38;;;20.09;71.35
31911;BME280;18457;52.432;16.914;2022-08-01T06:37:04;100105.77;;;20.11;71.02
31911;BME280;18457;52.432;16.914;2022-08-01T06:39:37;100105.13;;;20.15;70.66
31911;BME280;18457;52.432;16.914;2022-08-01T06:42:09;100105.36;;;20.17;70.97
31911;BME280;18457;52.432;16.914;2022-08-01T06:44:41;100110.73;;;20.16;71.27
31911;BME280;18457;52.432;16.914;2022-08-01T06:47:13;100110.75;;;20.19;70.79
31911;BME280;18457;52.432;16.914;2022-08-01T06:49:45;100114.05;;;20.19;70.90
31911;BME280;18457;52.432;16.914;2022-08-01T06:52:17;100117.97;;;20.21;71.45
31911;BME280;18457;52.432;16.914;2022-08-01T06:54:48;100113.61;;;20.23;70.96
31911;BME280;18457;52.432;16.914;2022-08-01T06:57:20;100117.17;;;20.22;70.88
31911;BME280;18457;52.432;16.914;2022-08-01T06:59:52;100114.29;;;20.26;70.81
31911;BME280;18457;52.432;16.914;2022-08-01T07:02:24;100117.89;;;20.17;70.64
31911;BME280;18457;52.432;16.914;2022-08-01T07:04:56;100122.67;;;20.19;71.08
31911;BME280;18457;52.432;16.914;2022-08-01T07:07:33;100125.49;;;20.18;70.60
31911;BME280;18457;52.432;16.914;2022-08-01T07:10:06;100120.92;;;20.18;70.48
31911;BME280;18457;52.432;16.914;2022-08-01T07:12:39;100118.58;;;20.23;70.44
31911;BME280;18457;52.432;16.914;2022-08-01T07:15:12;100118.22;;;20.25;70.53
31911;BME280;18457;52.432;16.914;2022-08-01T07:17:44;100118.32;;;20.27;70.33
31911;BME280;18457;52.432;16.914;2022-08-01T07:20:16;100115.42;;;20.29;70.31
31911;BME280;18457;52.432;16.914;2022-08-01T07:22:49;100120.52;;;20.32;70.61
31911;BME280;18457;52.432;16.914;2022-08-01T07:25:20;100119.13;;;20.41;70.19
31911;BME280;18457;52.432;16.914;2022-08-01T07:27:52;100124.40;;;20.42;70.22
31911;BME280;18457;52.432;16.914;2022-08-01T07:30:24;100126.39;;;20.40;70.22
31911;BME280;18457;52.432;16.914;2022-08-01T07:32:57;100122.05;;;20.36;70.29
31911;BME280;18457;52.432;16.914;2022-08-01T07:35:29;100122.20;;;20.29;70.70
31911;BME280;18457;52.432;16.914;2022-08-01T07:38:01;100123.02;;;20.38;71.00
31911;BME280;18457;52.432;16.914;2022-08-01T07:40:33;100120.21;;;20.41;71.20
31911;BME280;18457;52.432;16.914;2022-08-01T07:43:05;100124.75;;;20.45;70.55
31911;BME280;18457;52.432;16.914;2022-08-01T07:45:36;100124.95;;;20.34;70.63
31911;BME280;18457;52.432;16.914;2022-08-01T07:48:15;100123.88;;;20.39;70.78
31911;BME280;18457;52.432;16.914;2022-08-01T07:50:47;100120.27;;;20.35;70.57
31911;BME280;18457;52.432;16.914;2022-08-01T07:53:19;100125.91;;;20.44;70.28
31911;BME280;18457;52.432;16.914;2022-08-01T07:55:51;100126.10;;;20.46;70.43
31911;BME280;18457;52.432;16.914;2022-08-01T07:58:23;100123.57;;;20.51;70.36
31911;BME280;18457;52.432;16.914;2022-08-01T08:00:54;100128.11;;;20.60;70.00
31911;BME280;18457;52.432;16.914;2022-08-01T08:03:26;100128.17;;;20.48;70.18
31911;BME280;18457;52.432;16.914;2022-08-01T08:05:58;100131.73;;;20.60;70.35
31911;BME280;18457;52.432;16.914;2022-08-01T08:08:31;100131.11;;;20.56;70.35
31911;BME280;18457;52.432;16.914;2022-08-01T08:11:04;100134.97;;;20.64;70.26
31911;BME280;18457;52.432;16.914;2022-08-01T08:13:36;100139.20;;;20.59;69.67
31911;BME280;18457;52.432;16.914;2022-08-01T08:16:08;100144.96;;;20.68;69.61
31911;BME280;18457;52.432;16.914;2022-08-01T08:18:40;100144.23;;;20.55;69.36
31911;BME280;18457;52.432;16.914;2022-08-01T08:21:11;100147.33;;;20.55;69.41
31911;BME280;18457;52.432;16.914;2022-08-01T08:23:43;100149.64;;;20.69;69.08
31911;BME280;18457;52.432;16.914;2022-08-01T08:26:33;100150.92;;;20.77;68.55
31911;BME280;18457;52.432;16.914;2022-08-01T08:29:05;100152.02;;;20.90;68.20
31911;BME280;18457;52.432;16.914;2022-08-01T08:31:36;100156.30;;;20.95;68.28
31911;BME280;18457;52.432;16.914;2022-08-01T08:34:22;100153.00;;;21.02;67.67
31911;BME280;18457;52.432;16.914;2022-08-01T08:36:55;100154.69;;;21.22;67.42
31911;BME280;18457;52.432;16.914;2022-08-01T08:39:28;100148.71;;;21.39;66.68
31911;BME280;18457;52.432;16.914;2022-08-01T08:42:12;100144.07;;;21.32;66.78
31911;BME280;18457;52.432;16.914;2022-08-01T08:44:44;100142.13;;;21.43;66.84
31911;BME280;18457;52.432;16.914;2022-08-01T08:47:16;100143.88;;;21.49;66.00
31911;BME280;18457;52.432;16.914;2022-08-01T08:49:53;100144.80;;;21.54;65.52
31911;BME280;18457;52.432;16.914;2022-08-01T08:52:25;100145.98;;;21.58;65.71
31911;BME280;18457;52.432;16.914;2022-08-01T08:54:58;100153.85;;;21.79;65.23
31911;BME280;18457;52.432;16.914;2022-08-01T08:57:31;100146.51;;;21.86;64.59
31911;BME280;18457;52.432;16.914;2022-08-01T09:00:05;100148.00;;;21.91;64.41
31911;BME280;18457;52.432;16.914;2022-08-01T09:02:38;100153.73;;;22.05;64.20
31911;BME280;18457;52.432;16.914;2022-08-01T09:05:11;100156.17;;;22.02;64.56
31911;BME280;18457;52.432;16.914;2022-08-01T09:07:49;100155.47;;;22.09;63.98
31911;BME280;18457;52.432;16.914;2022-08-01T09:10:21;100158.45;;;22.20;63.97
31911;BME280;18457;52.432;16.914;2022-08-01T09:13:08;100162.14;;;22.20;63.64
31911;BME280;18457;52.432;16.914;2022-08-01T09:15:43;100159.86;;;22.14;63.59
31911;BME280;18457;52.432;16.914;2022-08-01T09:18:31;100159.64;;;22.19;63.84
31911;BME280;18457;52.432;16.914;2022-08-01T09:21:13;100155.84;;;22.32;63.88
31911;BME280;18457;52.432;16.914;2022-08-01T09:23:48;100153.95;;;22.45;63.46
31911;BME280;18457;52.432;16.914;2022-08-01T09:26:37;100151.21;;;22.57;63.39
31911;BME280;18457;52.432;16.914;2022-08-01T09:29:19;100152.45;;;22.63;63.00
31911;BME280;18457;52.432;16.914;2022-08-01T09:32:07;100150.58;;;22.75;62.80
31911;BME280;18457;52.432;16.914;2022-08-01T09:34:45;100150.60;;;23.04;62.46
31911;BME280;18457;52.432;16.914;2022-08-01T09:37:30;100149.30;;;23.15;62.09
31911;BME280;18457;52.432;16.914;2022-08-01T09:40:09;100155.41;;;23.24;61.86
31911;BME280;18457;52.432;16.914;2022-08-01T09:42:42;100152.64;;;23.38;61.59
31911;BME280;18457;52.432;16.914;2022-08-01T09:48:25;100147.55;;;23.56;61.01
31911;BME280;18457;52.432;16.914;2022-08-01T09:51:00;100144.96;;;23.60;60.81
31911;BME280;18457;52.432;16.914;2022-08-01T09:53:44;100139.42;;;23.74;60.84
31911;BME280;18457;52.432;16.914;2022-08-01T09:56:22;100138.29;;;23.98;59.88
31911;BME280;18457;52.432;16.914;2022-08-01T09:58:56;100138.92;;;24.14;58.93
31911;BME280;18457;52.432;16.914;2022-08-01T10:01:44;100137.50;;;24.31;58.66
31911;BME280;18457;52.432;16.914;2022-08-01T10:04:18;100139.48;;;24.39;58.33
31911;BME280;18457;52.432;16.914;2022-08-01T10:06:51;100141.36;;;24.55;57.89
31911;BME280;18457;52.432;16.914;2022-08-01T10:09:30;100139.80;;;24.58;57.87
31911;BME280;18457;52.432;16.914;2022-08-01T10:12:12;100135.20;;;24.66;57.93
31911;BME280;18457;52.432;16.914;2022-08-01T10:14:47;100132.27;;;24.85;57.88
31911;BME280;18457;52.432;16.914;2022-08-01T10:17:21;100131.39;;;25.08;57.58
31911;BME280;18457;52.432;16.914;2022-08-01T10:20:15;100130.33;;;25.11;57.16
31911;BME280;18457;52.432;16.914;2022-08-01T10:23:02;100127.87;;;25.41;56.73
31911;BME280;18457;52.432;16.914;2022-08-01T10:25:40;100128.61;;;25.43;56.22
31911;BME280;18457;52.432;16.914;2022-08-01T10:28:17;100123.34;;;25.56;55.22
31911;BME280;18457;52.432;16.914;2022-08-01T10:30:53;100123.27;;;25.49;55.15
31911;BME280;18457;52.432;16.914;2022-08-01T10:33:30;100116.14;;;25.42;55.32
31911;BME280;18457;52.432;16.914;2022-08-01T10:36:22;100123.36;;;25.31;55.22
31911;BME280;18457;52.432;16.914;2022-08-01T10:38:56;100123.65;;;25.24;55.38
31911;BME280;18457;52.432;16.914;2022-08-01T10:41:29;100125.42;;;25.19;56.09
31911;BME280;18457;52.432;16.914;2022-08-01T10:44:01;100126.71;;;25.12;56.71
31911;BME280;18457;52.432;16.914;2022-08-01T10:46:37;100125.59;;;25.13;57.10
31911;BME280;18457;52.432;16.914;2022-08-01T10:49:17;100122.59;;;25.04;57.25
31911;BME280;18457;52.432;16.914;2022-08-01T10:51:49;100122.74;;;25.03;57.20
31911;BME280;18457;52.432;16.914;2022-08-01T10:54:26;100124.38;;;24.99;57.16
31911;BME280;18457;52.432;16.914;2022-08-01T10:57:01;100128.45;;;24.93;57.42
31911;BME280;18457;52.432;16.914;2022-08-01T10:59:34;100130.31;;;24.88;57.21
31911;BME280;18457;52.432;16.914;2022-08-01T11:02:32;100133.17;;;24.85;57.75
31911;BME280;18457;52.432;16.914;2022-08-01T11:05:09;100134.36;;;24.87;57.81
31911;BME280;18457;52.432;16.914;2022-08-01T11:07:52;100140.89;;;24.80;57.92
31911;BME280;18457;52.432;16.914;2022-08-01T11:10:28;100140.68;;;24.73;58.31
31911;BME280;18457;52.432;16.914;2022-08-01T11:13:03;100144.69;;;24.65;59.35
31911;BME280;18457;52.432;16.914;2022-08-01T11:15:38;100146.59;;;24.50;60.67
31911;BME280;18457;52.432;16.914;2022-08-01T11:18:33;100146.70;;;24.38;62.84
31911;BME280;18457;52.432;16.914;2022-08-01T11:21:08;100147.80;;;24.38;63.09
31911;BME280;18457;52.432;16.914;2022-08-01T11:23:59;100146.50;;;24.41;64.44
31911;BME280;18457;52.432;16.914;2022-08-01T11:26:31;100148.77;;;24.46;64.49
31911;BME280;18457;52.432;16.914;2022-08-01T11:29:18;100154.62;;;24.60;65.33
31911;BME280;18457;52.432;16.914;2022-08-01T11:31:52;100153.84;;;24.66;66.68
31911;BME280;18457;52.432;16.914;2022-08-01T11:34:55;100154.08;;;24.79;65.25
31911;BME280;18457;52.432;16.914;2022-08-01T11:37:28;100153.55;;;24.91;65.56
31911;BME280;18457;52.432;16.914;2022-08-01T11:40:21;100153.98;;;24.86;66.32
31911;BME280;18457;52.432;16.914;2022-08-01T11:43:17;100158.46;;;24.84;64.98
31911;BME280;18457;52.432;16.914;2022-08-01T11:45:50;100159.90;;;24.78;65.78
31911;BME280;18457;52.432;16.914;2022-08-01T11:48:26;100159.60;;;24.53;67.13
31911;BME280;18457;52.432;16.914;2022-08-01T11:50:59;100160.15;;;24.32;68.72
31911;BME280;18457;52.432;16.914;2022-08-01T11:53:32;100157.16;;;24.35;68.48
31911;BME280;18457;52.432;16.914;2022-08-01T11:56:06;100160.53;;;24.55;68.19
31911;BME280;18457;52.432;16.914;2022-08-01T11:58:39;100162.48;;;24.69;68.11
31911;BME280;18457;52.432;16.914;2022-08-01T12:01:13;100160.05;;;24.85;68.25
31911;BME280;18457;52.432;16.914;2022-08-01T12:03:45;100158.92;;;24.93;67.98
31911;BME280;18457;52.432;16.914;2022-08-01T12:06:29;100158.73;;;24.89;67.79
31911;BME280;18457;52.432;16.914;2022-08-01T12:09:18;100161.08;;;24.92;66.74
31911;BME280;18457;52.432;16.914;2022-08-01T12:11:50;100157.44;;;24.87;67.32
31911;BME280;18457;52.432;16.914;2022-08-01T12:14:23;100159.33;;;24.82;67.34
31911;BME280;18457;52.432;16.914;2022-08-01T12:16:56;100162.27;;;24.87;67.62
31911;BME280;18457;52.432;16.914;2022-08-01T12:19:29;100162.67;;;24.95;67.65
31911;BME280;18457;52.432;16.914;2022-08-01T12:22:09;100160.77;;;24.97;68.67
31911;BME280;18457;52.432;16.914;2022-08-01T12:24:43;100163.28;;;24.94;67.78
31911;BME280;18457;52.432;16.914;2022-08-01T12:27:25;100161.04;;;24.98;66.54
31911;BME280;18457;52.432;16.914;2022-08-01T12:29:56;100157.86;;;25.07;66.63
31911;BME280;18457;52.432;16.914;2022-08-01T12:32:30;100158.33;;;25.17;66.73
31911;BME280;18457;52.432;16.914;2022-08-01T12:35:07;100148.19;;;25.25;65.90
31911;BME280;18457;52.432;16.914;2022-08-01T12:37:43;100142.95;;;25.25;65.15
31911;BME280;18457;52.432;16.914;2022-08-01T12:40:17;100142.68;;;25.24;64.54
31911;BME280;18457;52.432;16.914;2022-08-01T12:42:52;100144.60;;;25.17;64.13
31911;BME280;18457;52.432;16.914;2022-08-01T12:45:25;100150.82;;;25.10;64.09
31911;BME280;18457;52.432;16.914;2022-08-01T12:47:59;100151.88;;;25.15;63.92
31911;BME280;18457;52.432;16.914;2022-08-01T12:50:33;100148.05;;;25.03;64.01
31911;BME280;18457;52.432;16.914;2022-08-01T12:53:07;100143.83;;;25.03;64.53
31911;BME280;18457;52.432;16.914;2022-08-01T12:55:47;100140.27;;;25.07;64.80
31911;BME280;18457;52.432;16.914;2022-08-01T12:58:33;100144.48;;;25.08;64.92
31911;BME280;18457;52.432;16.914;2022-08-01T13:01:06;100146.67;;;25.13;63.81
31911;BME280;18457;52.432;16.914;2022-08-01T13:03:39;100153.04;;;25.05;62.74
31911;BME280;18457;52.432;16.914;2022-08-01T13:06:14;100154.12;;;25.05;62.70
31911;BME280;18457;52.432;16.914;2022-08-01T13:08:47;100163.11;;;25.02;62.88
31911;BME280;18457;52.432;16.914;2022-08-01T13:11:19;100160.89;;;25.06;63.21
31911;BME280;18457;52.432;16.914;2022-08-01T13:13:52;100159.30;;;25.18;63.89
31911;BME280;18457;52.432;16.914;2022-08-01T13:16:23;100158.64;;;25.32;63.70
31911;BME280;18457;52.432;16.914;2022-08-01T13:19:15;100158.44;;;25.49;63.44
31911;BME280;18457;52.432;16.914;2022-08-01T13:21:58;100154.89;;;25.75;62.32
31911;BME280;18457;52.432;16.914;2022-08-01T13:24:32;100156.94;;;26.10;61.12
31911;BME280;18457;52.432;16.914;2022-08-01T13:27:05;100159.71;;;26.07;59.85